createdAt,value
2023-05-26T00:00:15.201Z,13.10
2023-05-26T00:02:45.362Z,14.00
2023-05-26T00:05:15.743Z,13.40
2023-05-26T00:07:43.537Z,14.70
2023-05-26T00:10:13.960Z,14.10
2023-05-26T00:12:41.948Z,13.90
2023-05-26T00:15:14.033Z,15.20
2023-05-26T00:17:41.769Z,14.70
2023-05-26T00:20:09.706Z,15.40
2023-05-26T00:22:37.136Z,15.70
2023-05-26T00:25:07.878Z,15.90
2023-05-26T00:27:35.408Z,14.90
2023-05-26T00:30:03.598Z,15.80
2023-05-26T00:32:31.030Z,16.40
2023-05-26T00:34:58.504Z,15.60
2023-05-26T00:37:25.874Z,15.80
2023-05-26T00:39:53.114Z,15.20
2023-05-26T00:42:20.768Z,14.90
2023-05-26T00:44:50.316Z,15.10
2023-05-26T00:47:18.491Z,14.70
2023-05-26T00:49:47.806Z,16.30
2023-05-26T00:52:15.255Z,15.20
2023-05-26T00:54:46.137Z,15.10
2023-05-26T00:57:13.802Z,15.20
2023-05-26T00:59:42.414Z,15.40
2023-05-26T01:05:07.522Z,14.60
2023-05-26T01:07:34.902Z,15.00
2023-05-26T01:10:02.107Z,15.30
2023-05-26T01:12:44.450Z,16.60
2023-05-26T01:15:17.207Z,15.10
2023-05-26T01:18:10.679Z,15.60
2023-05-26T01:20:47.504Z,15.20
2023-05-26T01:23:23.874Z,16.80
2023-05-26T01:26:17.342Z,15.70
2023-05-26T01:28:46.270Z,14.20
2023-05-26T01:31:15.238Z,15.50
2023-05-26T01:33:42.801Z,16.10
2023-05-26T01:36:10.516Z,17.80
2023-05-26T01:38:38.233Z,19.40
2023-05-26T01:41:44.498Z,20.80
2023-05-26T01:44:33.392Z,19.30
2023-05-26T01:47:02.939Z,19.40
2023-05-26T01:49:31.153Z,18.60
2023-05-26T01:52:01.683Z,21.90
2023-05-26T01:54:35.653Z,24.90
2023-05-26T01:57:12.555Z,24.70
2023-05-26T01:59:39.913Z,22.90
2023-05-26T02:02:08.049Z,24.90
2023-05-26T02:04:36.325Z,26.80
2023-05-26T02:07:07.617Z,26.90
2023-05-26T02:09:35.254Z,28.00
2023-05-26T02:12:04.503Z,24.10
2023-05-26T02:14:32.534Z,21.20
2023-05-26T02:17:00.483Z,23.00
2023-05-26T02:19:29.284Z,22.20
2023-05-26T02:21:57.972Z,21.70
2023-05-26T02:24:25.136Z,23.40
2023-05-26T02:26:52.870Z,25.20
2023-05-26T02:29:20.568Z,24.10
2023-05-26T02:31:47.933Z,24.70
2023-05-26T02:34:15.756Z,24.40
2023-05-26T02:36:43.241Z,25.40
2023-05-26T02:39:10.692Z,27.00
2023-05-26T02:41:38.183Z,25.90
2023-05-26T02:44:07.907Z,27.00
2023-05-26T02:46:35.322Z,28.00
2023-05-26T02:49:02.902Z,25.50
2023-05-26T02:51:30.307Z,26.70
2023-05-26T02:53:58.109Z,29.30
2023-05-26T02:56:25.420Z,29.10
2023-05-26T02:58:52.973Z,29.10
2023-05-26T03:01:20.373Z,30.90
2023-05-26T03:03:47.805Z,31.10
2023-05-26T03:06:15.204Z,29.80
2023-05-26T03:08:42.853Z,28.60
2023-05-26T03:11:11.584Z,29.40
2023-05-26T03:13:40.182Z,30.30
2023-05-26T03:16:07.964Z,33.10
2023-05-26T03:18:35.670Z,31.10
2023-05-26T03:21:06.008Z,29.30
2023-05-26T03:23:37.001Z,28.90
2023-05-26T03:26:06.740Z,29.30
2023-05-26T03:28:34.074Z,28.60
2023-05-26T03:31:03.099Z,29.50
2023-05-26T03:33:33.045Z,28.40
2023-05-26T03:36:02.224Z,29.30
2023-05-26T03:38:30.885Z,31.50
2023-05-26T03:40:59.755Z,31.60
2023-05-26T03:43:28.399Z,33.00
2023-05-26T03:45:55.938Z,33.70
2023-05-26T03:48:23.665Z,34.00
2023-05-26T03:50:51.233Z,34.60
2023-05-26T03:53:19.257Z,35.80
2023-05-26T03:55:46.871Z,36.90
2023-05-26T03:58:15.088Z,36.80
2023-05-26T04:00:42.951Z,36.50
2023-05-26T04:03:11.952Z,38.70
2023-05-26T04:05:41.145Z,38.40
2023-05-26T04:08:29.395Z,37.70
2023-05-26T04:10:57.722Z,38.30
2023-05-26T04:13:26.281Z,40.00
2023-05-26T04:15:57.842Z,42.10
2023-05-26T04:18:28.301Z,42.30
2023-05-26T04:20:55.794Z,42.60
2023-05-26T04:23:23.261Z,43.20
2023-05-26T04:25:52.101Z,42.50
2023-05-26T04:28:20.201Z,39.20
2023-05-26T04:30:49.124Z,38.70
2023-05-26T04:33:17.185Z,35.90
2023-05-26T04:35:46.379Z,38.00
2023-05-26T04:38:15.580Z,35.50
2023-05-26T04:40:46.762Z,36.00
2023-05-26T04:43:14.899Z,35.30
2023-05-26T04:45:44.118Z,35.50
2023-05-26T04:48:13.192Z,33.00
2023-05-26T04:50:42.555Z,34.50
2023-05-26T04:53:10.392Z,33.40
2023-05-26T04:55:38.017Z,34.70
2023-05-26T04:58:09.168Z,33.70
2023-05-26T05:00:36.887Z,33.00
2023-05-26T05:03:06.067Z,34.30
2023-05-26T05:05:33.728Z,37.70
2023-05-26T05:08:02.010Z,32.40
2023-05-26T05:10:29.653Z,33.50
2023-05-26T05:12:57.211Z,32.40
2023-05-26T05:15:25.274Z,30.50
2023-05-26T05:17:53.105Z,31.20
2023-05-26T05:20:20.905Z,29.80
2023-05-26T05:22:48.459Z,29.60
2023-05-26T05:25:15.730Z,29.50
2023-05-26T05:27:42.974Z,27.60
2023-05-26T05:30:11.028Z,25.70
2023-05-26T05:32:38.447Z,27.60
2023-05-26T05:35:06.665Z,27.20
2023-05-26T05:37:34.226Z,26.90
2023-05-26T05:40:01.722Z,25.80
2023-05-26T05:42:29.272Z,25.30
2023-05-26T05:44:56.671Z,23.80
2023-05-26T05:47:24.450Z,24.70
2023-05-26T05:49:52.925Z,24.20
2023-05-26T05:52:42.179Z,23.00
2023-05-26T05:55:45.553Z,21.50
2023-05-26T05:58:12.798Z,22.10
2023-05-26T06:00:40.134Z,21.90
2023-05-26T06:03:07.957Z,21.60
2023-05-26T06:05:36.162Z,21.40
2023-05-26T06:08:13.470Z,21.10
2023-05-26T06:10:42.233Z,20.10
2023-05-26T06:13:10.117Z,20.00
2023-05-26T06:16:31.372Z,20.20
2023-05-26T06:19:01.493Z,19.70
2023-05-26T06:21:50.747Z,18.40
2023-05-26T06:24:19.197Z,17.70
2023-05-26T06:27:15.160Z,16.00
2023-05-26T06:29:46.222Z,16.50
2023-05-26T06:32:31.285Z,15.70
2023-05-26T06:34:58.825Z,15.40
2023-05-26T06:38:26.386Z,14.50
2023-05-26T06:41:25.327Z,14.50
2023-05-26T06:44:19.456Z,14.50
2023-05-26T06:46:59.202Z,14.10
2023-05-26T06:49:27.299Z,12.80
2023-05-26T06:51:56.544Z,13.70
2023-05-26T06:55:17.762Z,12.20
2023-05-26T06:58:26.006Z,12.30
2023-05-26T07:01:54.191Z,12.60
2023-05-26T07:05:45.030Z,12.00
2023-05-26T07:09:29.062Z,12.60
2023-05-26T07:12:57.388Z,11.30
2023-05-26T07:15:54.045Z,12.80
2023-05-26T07:18:28.785Z,13.00
2023-05-26T07:21:55.764Z,13.40
2023-05-26T07:25:02.952Z,13.80
2023-05-26T07:32:34.975Z,12.80
2023-05-26T07:36:24.263Z,11.90
2023-05-26T07:39:33.198Z,11.60
2023-05-26T07:42:52.158Z,11.90
2023-05-26T07:45:21.723Z,12.60
2023-05-26T07:48:49.378Z,11.70
2023-05-26T07:52:16.746Z,11.90
2023-05-26T07:55:53.943Z,11.90
2023-05-26T07:59:42.802Z,11.10
2023-05-26T08:03:10.471Z,9.60
2023-05-26T08:06:37.780Z,10.70
2023-05-26T08:09:28.526Z,10.30
2023-05-26T08:12:37.461Z,12.40
2023-05-26T08:15:36.083Z,12.20
2023-05-26T08:18:52.341Z,11.50
2023-05-26T08:22:19.934Z,11.90
2023-05-26T08:25:31.313Z,11.00
2023-05-26T08:28:11.714Z,10.90
2023-05-26T08:30:39.298Z,10.50
2023-05-26T08:33:07.742Z,10.60
2023-05-26T08:36:15.621Z,9.30
2023-05-26T08:38:43.192Z,10.00
2023-05-26T08:41:15.442Z,9.50
2023-05-26T08:44:06.286Z,10.30
2023-05-26T08:46:37.292Z,8.50
2023-05-26T08:49:21.457Z,8.50
2023-05-26T08:52:20.326Z,7.80
2023-05-26T08:54:50.021Z,7.30
2023-05-26T08:57:20.829Z,6.00
2023-05-26T08:59:53.637Z,5.30
2023-05-26T09:02:22.668Z,5.70
2023-05-26T09:04:55.309Z,5.20
2023-05-26T09:07:26.261Z,5.70
2023-05-26T09:09:56.073Z,4.80
2023-05-26T09:12:24.016Z,5.10
2023-05-26T09:14:51.497Z,4.50
2023-05-26T09:17:39.957Z,4.80
2023-05-26T09:20:13.172Z,4.10
2023-05-26T09:22:43.576Z,5.00
2023-05-26T09:25:10.910Z,4.30
2023-05-26T09:27:38.532Z,7.60
2023-05-26T09:30:08.620Z,7.10
2023-05-26T09:32:36.715Z,6.80
2023-05-26T09:35:16.167Z,5.90
2023-05-26T09:37:44.705Z,6.10
2023-05-26T09:40:28.643Z,5.70
2023-05-26T09:42:56.426Z,5.50
2023-05-26T09:45:44.826Z,5.30
2023-05-26T09:48:58.919Z,5.00
2023-05-26T09:51:38.476Z,4.90
2023-05-26T09:54:06.663Z,5.00
2023-05-26T09:56:45.304Z,4.90
2023-05-26T09:59:36.613Z,5.00
2023-05-26T10:02:36.552Z,5.30
2023-05-26T10:05:08.276Z,4.80
2023-05-26T10:07:38.208Z,4.70
2023-05-26T10:11:05.295Z,5.70
2023-05-26T10:13:53.624Z,5.00
2023-05-26T10:16:23.952Z,7.40
2023-05-26T10:18:51.782Z,5.80
2023-05-26T10:22:01.390Z,10.90
2023-05-26T10:24:37.123Z,7.00
2023-05-26T10:27:12.981Z,12.30
2023-05-26T10:32:52.973Z,9.50
2023-05-26T10:35:25.523Z,6.60
2023-05-26T10:37:57.994Z,10.00
2023-05-26T10:40:35.231Z,6.70
2023-05-26T10:43:12.269Z,8.70
2023-05-26T10:46:00.113Z,7.50
2023-05-26T10:48:37.161Z,7.20
2023-05-26T10:51:04.411Z,8.10
2023-05-26T10:53:34.214Z,6.60
2023-05-26T10:56:10.250Z,6.40
2023-05-26T10:58:52.483Z,6.90
2023-05-26T11:01:30.191Z,6.70
2023-05-26T11:04:10.550Z,6.20
2023-05-26T11:06:52.223Z,6.30
2023-05-26T11:09:24.344Z,6.30
2023-05-26T11:11:57.108Z,6.40
2023-05-26T11:14:35.072Z,6.10
2023-05-26T11:17:06.243Z,5.40
2023-05-26T11:19:37.294Z,5.90
2023-05-26T11:22:24.340Z,4.50
2023-05-26T11:24:52.954Z,4.60
2023-05-26T11:27:20.208Z,4.10
2023-05-26T11:30:51.740Z,4.00
2023-05-26T11:33:23.106Z,4.00
2023-05-26T11:35:51.410Z,3.80
2023-05-26T11:38:20.874Z,3.30
2023-05-26T11:40:51.540Z,3.50
2023-05-26T11:43:25.757Z,3.80
2023-05-26T11:45:56.813Z,3.80
2023-05-26T11:48:25.374Z,4.20
2023-05-26T11:50:55.302Z,3.70
2023-05-26T11:53:24.569Z,4.10
2023-05-26T11:56:02.448Z,3.60
2023-05-26T11:58:29.958Z,3.90
2023-05-26T12:01:02.745Z,3.50
2023-05-26T12:03:35.297Z,2.80
2023-05-26T12:06:18.002Z,3.90
2023-05-26T12:08:56.951Z,3.30
2023-05-26T12:11:37.039Z,3.80
2023-05-26T12:14:07.810Z,4.00
2023-05-26T12:16:57.279Z,4.00
2023-05-26T12:19:29.190Z,3.90
2023-05-26T12:22:01.872Z,3.40
2023-05-26T12:24:35.226Z,4.00
2023-05-26T12:27:13.892Z,3.50
2023-05-26T12:29:44.672Z,3.90
2023-05-26T12:32:13.753Z,3.40
2023-05-26T12:34:45.532Z,3.70
2023-05-26T12:37:13.816Z,3.30
2023-05-26T12:40:04.844Z,3.60
2023-05-26T12:42:57.219Z,3.90
2023-05-26T12:46:09.863Z,3.30
2023-05-26T12:49:02.351Z,3.40
2023-05-26T12:51:36.920Z,5.00
2023-05-26T12:54:07.750Z,3.70
2023-05-26T12:56:47.782Z,4.80
2023-05-26T12:59:32.163Z,4.10
2023-05-26T13:02:00.776Z,8.00
2023-05-26T13:05:04.878Z,6.60
2023-05-26T13:07:54.280Z,4.00
2023-05-26T13:10:33.833Z,9.50
2023-05-26T13:13:22.056Z,8.40
2023-05-26T13:15:50.588Z,4.10
2023-05-26T13:18:22.598Z,4.00
2023-05-26T13:20:50.662Z,4.60
2023-05-26T13:23:18.396Z,4.40
2023-05-26T13:25:47.589Z,3.80
2023-05-26T13:28:15.817Z,3.30
2023-05-26T13:30:49.558Z,4.40
2023-05-26T13:34:07.915Z,4.10
2023-05-26T13:36:37.433Z,4.40
2023-05-26T13:39:50.700Z,4.00
2023-05-26T13:42:38.939Z,3.50
2023-05-26T13:45:10.727Z,4.20
2023-05-26T13:48:31.397Z,3.50
2023-05-26T13:51:09.279Z,3.10
2023-05-26T13:53:39.087Z,3.70
2023-05-26T13:57:11.436Z,3.80
2023-05-26T14:00:39.921Z,4.30
2023-05-26T14:03:53.323Z,4.70
2023-05-26T14:07:14.427Z,6.60
2023-05-26T14:10:34.717Z,5.60
2023-05-26T14:14:02.427Z,5.00
2023-05-26T14:17:07.695Z,5.10
2023-05-26T14:19:50.562Z,3.80
2023-05-26T14:22:31.683Z,3.80
2023-05-26T14:25:40.907Z,5.00
2023-05-26T14:28:28.961Z,3.60
2023-05-26T14:31:16.290Z,6.00
2023-05-26T14:34:28.158Z,5.70
2023-05-26T14:37:40.830Z,4.10
2023-05-26T14:40:22.284Z,4.30
2023-05-26T14:42:53.955Z,3.60
2023-05-26T14:45:21.483Z,3.50
2023-05-26T14:47:51.448Z,3.60
2023-05-26T14:51:00.556Z,4.30
2023-05-26T14:53:31.460Z,3.70
2023-05-26T14:56:05.311Z,4.00
2023-05-26T14:58:43.783Z,5.30
2023-05-26T15:01:12.056Z,5.20
2023-05-26T15:04:00.966Z,5.10
2023-05-26T15:06:32.697Z,3.90
2023-05-26T15:09:00.300Z,4.40
2023-05-26T15:11:28.615Z,3.70
2023-05-26T15:13:56.991Z,4.10
2023-05-26T15:16:25.008Z,3.20
2023-05-26T15:22:11.378Z,3.30
2023-05-26T15:25:17.920Z,3.70
2023-05-26T15:28:09.047Z,3.40
2023-05-26T15:31:25.236Z,3.70
2023-05-26T15:34:02.830Z,3.50
2023-05-26T15:36:58.527Z,3.30
2023-05-26T15:40:25.713Z,2.90
2023-05-26T15:43:34.817Z,3.50
2023-05-26T15:46:51.935Z,3.10
2023-05-26T15:49:59.639Z,3.00
2023-05-26T15:53:23.267Z,3.10
2023-05-26T15:57:02.602Z,2.70
2023-05-26T16:00:48.112Z,2.40
2023-05-26T16:03:22.604Z,3.10
2023-05-26T16:05:53.549Z,2.70
2023-05-26T16:08:42.534Z,3.00
2023-05-26T16:11:18.350Z,2.90
2023-05-26T16:14:45.323Z,2.50
2023-05-26T16:18:15.797Z,2.90
2023-05-26T16:21:47.035Z,2.50
2023-05-26T16:25:14.898Z,2.30
2023-05-26T16:29:02.408Z,2.30
2023-05-26T16:32:29.812Z,2.30
2023-05-26T16:35:57.835Z,2.40
2023-05-26T16:39:24.756Z,18.40
2023-05-26T16:42:56.381Z,4.80
2023-05-26T16:46:34.906Z,2.90
2023-05-26T16:50:02.716Z,2.90
2023-05-26T16:53:49.949Z,2.20
2023-05-26T16:57:37.095Z,2.00
2023-05-26T17:00:52.611Z,2.10
2023-05-26T17:04:19.777Z,2.20
2023-05-26T17:08:06.863Z,2.30
2023-05-26T17:11:53.824Z,2.00
2023-05-26T17:15:21.027Z,1.90
2023-05-26T17:18:46.646Z,1.90
2023-05-26T17:22:13.774Z,2.50
2023-05-26T17:25:41.306Z,2.80
2023-05-26T17:29:28.161Z,2.90
2023-05-26T17:35:24.047Z,3.00
2023-05-26T17:37:53.923Z,2.60
2023-05-26T17:40:23.955Z,2.90
2023-05-26T17:42:51.216Z,3.10
2023-05-26T17:45:18.643Z,2.70
2023-05-26T17:47:46.489Z,2.50
2023-05-26T17:50:55.474Z,3.20
2023-05-26T17:54:23.294Z,2.80
2023-05-26T18:00:23.475Z,2.80
2023-05-26T18:03:53.186Z,3.10
2023-05-26T18:07:02.166Z,3.70
2023-05-26T18:10:30.394Z,3.10
2023-05-26T18:12:59.172Z,3.60
2023-05-26T18:16:02.899Z,3.40
2023-05-26T18:19:26.562Z,2.90
2023-05-26T18:22:54.025Z,2.50
2023-05-26T18:26:21.216Z,2.90
2023-05-26T18:29:46.089Z,2.90
2023-05-26T18:33:15.194Z,2.90
2023-05-26T18:36:30.711Z,2.40
2023-05-26T18:39:12.640Z,2.70
2023-05-26T18:42:02.540Z,3.20
2023-05-26T18:45:05.189Z,4.20
2023-05-26T18:48:22.810Z,4.60
2023-05-26T18:51:30.608Z,5.30
2023-05-26T18:54:40.562Z,11.00
2023-05-26T18:57:57.584Z,11.70
2023-05-26T19:01:25.707Z,10.30
2023-05-26T19:05:12.603Z,11.10
2023-05-26T19:08:21.224Z,11.30
2023-05-26T19:11:48.368Z,10.70
2023-05-26T19:14:43.452Z,13.80
2023-05-26T19:17:11.473Z,12.80
2023-05-26T19:19:41.272Z,5.90
2023-05-26T19:22:15.932Z,3.80
2023-05-26T19:24:48.379Z,3.60
2023-05-26T19:27:16.111Z,3.60
2023-05-26T19:29:45.007Z,6.20
2023-05-26T19:32:17.297Z,6.30
2023-05-26T19:35:03.022Z,9.10
2023-05-26T19:37:41.417Z,3.80
2023-05-26T19:40:20.681Z,5.90
2023-05-26T19:43:11.194Z,7.30
2023-05-26T19:45:47.792Z,12.00
2023-05-26T19:48:56.803Z,15.50
2023-05-26T19:52:03.984Z,14.40
2023-05-26T19:54:31.411Z,16.70
2023-05-26T19:57:43.278Z,17.60
2023-05-26T20:00:58.750Z,15.50
2023-05-26T20:04:10.863Z,11.10
2023-05-26T20:07:05.007Z,10.90
2023-05-26T20:10:04.305Z,8.30
2023-05-26T20:12:51.886Z,8.40
2023-05-26T20:15:50.805Z,11.60
2023-05-26T20:18:38.941Z,10.70
2023-05-26T20:22:06.227Z,11.50
2023-05-26T20:25:34.504Z,20.70
2023-05-26T20:28:23.346Z,17.30
2023-05-26T20:31:14.369Z,12.80
2023-05-26T20:34:27.311Z,10.80
2023-05-26T20:37:21.082Z,10.50
2023-05-26T20:40:33.141Z,10.40
2023-05-26T20:43:52.941Z,6.10
2023-05-26T20:47:15.060Z,5.70
2023-05-26T20:50:42.427Z,8.10
2023-05-26T20:53:52.263Z,6.20
2023-05-26T20:57:01.408Z,5.40
2023-05-26T20:59:53.762Z,5.30
2023-05-26T21:02:46.793Z,5.40
2023-05-26T21:05:25.910Z,4.50
2023-05-26T21:08:17.173Z,5.20
2023-05-26T21:10:45.498Z,4.90
2023-05-26T21:13:21.916Z,4.40
2023-05-26T21:15:59.727Z,4.60
2023-05-26T21:18:34.613Z,5.60
2023-05-26T21:21:04.870Z,5.10
2023-05-26T21:23:54.231Z,5.50
2023-05-26T21:26:24.287Z,5.60
2023-05-26T21:28:51.924Z,6.60
2023-05-26T21:31:43.010Z,5.80
2023-05-26T21:34:29.692Z,6.70
2023-05-26T21:36:59.601Z,6.20
2023-05-26T21:39:51.365Z,6.60
2023-05-26T21:42:44.647Z,6.40
2023-05-26T21:45:17.131Z,14.30
2023-05-26T21:48:07.327Z,16.00
2023-05-26T21:50:46.255Z,9.00
2023-05-26T21:53:17.264Z,6.00
2023-05-26T21:56:12.571Z,6.90
2023-05-26T21:59:06.192Z,6.10
2023-05-26T22:01:35.987Z,6.10
2023-05-26T22:04:04.345Z,5.70
2023-05-26T22:06:33.166Z,5.70
2023-05-26T22:09:00.711Z,4.50
2023-05-26T22:11:28.787Z,4.50
2023-05-26T22:13:56.599Z,4.70
2023-05-26T22:16:24.121Z,5.00
2023-05-26T22:18:51.750Z,5.30
2023-05-26T22:21:19.537Z,5.40
2023-05-26T22:23:47.612Z,6.10
2023-05-26T22:26:15.087Z,5.90
2023-05-26T22:28:43.255Z,5.70
2023-05-26T22:31:10.583Z,6.00
2023-05-26T22:33:37.953Z,5.90
2023-05-26T22:36:05.530Z,6.10
2023-05-26T22:38:32.990Z,6.20
2023-05-26T22:41:01.932Z,6.40
2023-05-26T22:43:29.690Z,6.20
2023-05-26T22:45:57.398Z,5.90
2023-05-26T22:48:25.618Z,5.10
2023-05-26T22:50:54.690Z,6.30
2023-05-26T22:53:22.353Z,6.30
2023-05-26T22:56:00.244Z,6.50
2023-05-26T22:58:33.239Z,6.60
2023-05-26T23:01:01.613Z,6.30
2023-05-26T23:03:29.348Z,5.60
2023-05-26T23:05:57.480Z,6.20
2023-05-26T23:08:24.957Z,6.20
2023-05-26T23:10:52.240Z,5.80
2023-05-26T23:13:22.262Z,6.50
2023-05-26T23:15:49.972Z,5.10
2023-05-26T23:18:17.317Z,6.10
2023-05-26T23:20:45.828Z,6.10
2023-05-26T23:23:14.161Z,6.60
2023-05-26T23:25:42.186Z,5.90
2023-05-26T23:28:09.724Z,6.60
2023-05-26T23:30:38.439Z,6.20
2023-05-26T23:33:05.976Z,5.80
2023-05-26T23:35:33.623Z,6.30
2023-05-26T23:38:03.211Z,6.10
2023-05-26T23:40:31.026Z,7.40
2023-05-26T23:43:00.081Z,7.50
2023-05-26T23:45:28.277Z,7.90
2023-05-26T23:47:56.682Z,7.70
2023-05-26T23:50:24.178Z,6.40
2023-05-26T23:52:51.823Z,6.70
2023-05-26T23:55:19.497Z,6.10
2023-05-26T23:57:48.032Z,6.40
